Time;durP1;ratioP1;P1;durP2;ratioP2;P2;SDS_P1;SDS_P2;PMS_P1;PMS_P2;Temp;Humidity;BMP_temperature;BMP_pressure;BME280_temperature;BME280_humidity;BME280_pressure;Samples;Min_cycle;Max_cycle;Signal;HPM_P1;HPM_P2
2023/09/28 00:01:16;;;;;;;1.48;1.25;;;20.40;59.90;;;;;;5153708;27;20494;-67
2023/09/28 00:03:42;;;;;;;0.47;0.47;;;20.40;60.00;;;;;;5154015;27;20499;-67
2023/09/28 00:06:08;;;;;;;0.47;0.47;;;20.50;59.90;;;;;;5153832;27;20057;-67
2023/09/28 00:08:33;;;;;;;0.60;0.60;;;20.50;59.90;;;;;;5154785;27;20031;-67
2023/09/28 00:10:59;;;;;;;0.40;0.40;;;20.50;59.90;;;;;;5153674;27;20023;-67
2023/09/28 00:13:25;;;;;;;0.88;0.82;;;20.50;60.00;;;;;;5173541;27;20305;-67
2023/09/28 00:15:51;;;;;;;0.52;0.52;;;20.60;60.10;;;;;;5174455;27;20034;-67
2023/09/28 00:18:16;;;;;;;0.40;0.40;;;20.70;60.00;;;;;;5174318;27;20034;-67
2023/09/28 00:20:42;;;;;;;0.70;0.70;;;20.70;59.90;;;;;;5174168;27;20022;-67
2023/09/28 00:23:07;;;;;;;0.73;0.73;;;20.70;59.80;;;;;;5174431;27;20498;-67
2023/09/28 00:25:33;;;;;;;0.60;0.60;;;20.80;59.70;;;;;;5174438;27;20022;-67
2023/09/28 00:27:58;;;;;;;0.80;0.80;;;20.70;59.60;;;;;;5174233;27;20084;-67
2023/09/28 00:30:26;;;;;;;0.40;0.40;;;20.70;59.50;;;;;;5173514;27;20026;-67
2023/09/28 00:32:55;;;;;;;0.50;0.50;;;20.70;59.50;;;;;;5173662;27;20026;-67
2023/09/28 00:35:22;;;;;;;0.68;0.68;;;20.70;59.40;;;;;;5174276;27;20516;-67
2023/09/28 00:37:51;;;;;;;0.50;0.50;;;20.70;59.30;;;;;;5163277;27;20409;-67
2023/09/28 00:40:19;;;;;;;0.55;0.55;;;20.70;59.30;;;;;;5174179;27;20792;-67
2023/09/28 00:42:51;;;;;;;0.60;0.60;;;20.70;59.20;;;;;;5174035;27;20033;-67
2023/09/28 00:45:22;;;;;;;0.50;0.50;;;20.70;59.30;;;;;;5174092;27;20146;-67
2023/09/28 00:47:55;;;;;;;0.60;0.60;;;20.70;59.30;;;;;;5173365;27;20035;-68
2023/09/28 00:50:21;;;;;;;0.40;0.40;;;20.70;59.30;;;;;;5173999;27;20029;-67
2023/09/28 00:52:57;;;;;;;0.43;0.43;;;20.70;59.10;;;;;;5173957;27;20059;-67
2023/09/28 00:55:24;;;;;;;0.50;0.50;;;20.70;59.00;;;;;;5174132;27;20019;-67
2023/09/28 00:57:50;;;;;;;0.40;0.40;;;20.70;58.90;;;;;;5173984;27;20053;-68
2023/09/28 01:00:21;;;;;;;0.45;0.45;;;20.70;58.90;;;;;;5174202;27;20033;-67
2023/09/28 01:02:51;;;;;;;0.52;0.52;;;20.60;58.80;;;;;;5174043;27;20429;-67
2023/09/28 01:05:22;;;;;;;0.40;0.40;;;20.60;58.70;;;;;;5173726;27;20018;-67
2023/09/28 01:07:48;;;;;;;0.40;0.40;;;20.60;58.60;;;;;;5173824;27;20495;-65
2023/09/28 01:10:18;;;;;;;0.55;0.55;;;20.50;58.60;;;;;;5173868;27;20113;-68
2023/09/28 01:12:44;;;;;;;0.70;0.70;;;20.50;58.50;;;;;;5174050;27;20406;-65
2023/09/28 01:15:11;;;;;;;0.30;0.30;;;20.40;58.40;;;;;;5173423;27;20060;-65
2023/09/28 01:17:40;;;;;;;0.30;0.30;;;20.40;58.40;;;;;;5173520;27;20040;-65
2023/09/28 01:20:18;;;;;;;0.40;0.40;;;20.40;58.50;;;;;;5173305;27;20062;-66
2023/09/28 01:22:49;;;;;;;0.40;0.40;;;20.40;58.50;;;;;;5173920;27;20479;-65
2023/09/28 01:25:15;;;;;;;;;;;20.30;58.50;;;;;;5174109;27;20018;-65
2023/09/28 01:27:44;;;;;;;0.70;0.70;;;20.30;58.60;;;;;;5173489;27;20009;-65
2023/09/28 01:30:11;;;;;;;0.40;0.40;;;20.30;58.50;;;;;;5172827;27;20424;-65
2023/09/28 01:32:37;;;;;;;0.50;0.50;;;20.20;58.60;;;;;;5171605;27;20018;-65
2023/09/28 01:35:04;;;;;;;0.40;0.40;;;20.30;58.70;;;;;;5173202;27;20497;-65
2023/09/28 01:37:42;;;;;;;0.40;0.40;;;20.20;58.90;;;;;;5162289;27;20037;-66
2023/09/28 01:40:09;;;;;;;0.30;0.30;;;20.20;58.80;;;;;;5161361;27;20030;-65
2023/09/28 01:42:34;;;;;;;0.40;0.40;;;20.20;58.90;;;;;;5172823;27;20025;-65
2023/09/28 01:45:00;;;;;;;0.50;0.50;;;20.20;58.90;;;;;;5172440;27;20038;-65
2023/09/28 01:47:25;;;;;;;0.40;0.40;;;20.10;58.90;;;;;;5173118;27;20030;-66
2023/09/28 01:49:51;;;;;;;0.63;0.63;;;20.20;58.90;;;;;;5171846;27;20090;-65
2023/09/28 01:52:16;;;;;;;0.40;0.40;;;20.20;59.00;;;;;;5173281;27;20143;-65
2023/09/28 01:54:42;;;;;;;0.43;0.43;;;20.20;59.00;;;;;;5172952;27;20451;-65
2023/09/28 01:57:08;;;;;;;0.40;0.40;;;20.20;59.00;;;;;;5172699;27;20027;-66
2023/09/28 01:59:34;;;;;;;0.77;0.77;;;20.20;59.00;;;;;;5174332;27;20498;-66
2023/09/28 02:02:01;;;;;;;0.30;0.30;;;20.20;59.00;;;;;;5176972;27;20075;-66
2023/09/28 02:04:26;;;;;;;0.30;0.30;;;20.20;59.00;;;;;;5177060;27;20064;-65
2023/09/28 02:06:53;;;;;;;0.52;0.52;;;20.20;59.00;;;;;;5175505;27;20054;-66
2023/09/28 02:09:19;;;;;;;0.40;0.40;;;20.20;59.00;;;;;;5176306;27;20079;-65
2023/09/28 02:11:44;;;;;;;0.40;0.40;;;20.20;59.00;;;;;;5176709;27;20371;-66
2023/09/28 02:14:13;;;;;;;0.63;0.63;;;20.30;59.00;;;;;;5176980;27;20042;-65
2023/09/28 02:16:39;;;;;;;0.50;0.50;;;20.20;59.20;;;;;;5176718;27;20113;-66
2023/09/28 02:19:05;;;;;;;0.40;0.40;;;20.20;59.10;;;;;;5178075;27;20030;-67
2023/09/28 02:21:31;;;;;;;0.40;0.40;;;20.30;59.20;;;;;;5178821;27;20049;-67
2023/09/28 02:23:58;;;;;;;3.00;0.75;;;20.30;59.30;;;;;;5178634;27;20034;-67
2023/09/28 02:26:27;;;;;;;0.50;0.50;;;20.30;59.40;;;;;;5178254;27;20018;-67
2023/09/28 02:28:52;;;;;;;0.68;0.55;;;20.30;59.40;;;;;;5178349;27;20030;-67
2023/09/28 02:31:18;;;;;;;0.35;0.35;;;20.30;59.40;;;;;;5177818;27;20022;-67
2023/09/28 02:33:43;;;;;;;0.40;0.40;;;20.30;59.30;;;;;;5178474;27;20490;-67
2023/09/28 02:36:09;;;;;;;0.50;0.50;;;20.40;59.30;;;;;;5177806;27;20030;-67
2023/09/28 02:38:36;;;;;;;0.93;0.93;;;20.50;59.30;;;;;;5158158;27;20467;-67
2023/09/28 02:41:01;;;;;;;0.30;0.30;;;20.50;59.20;;;;;;5157466;27;20075;-67
2023/09/28 02:43:27;;;;;;;0.88;0.77;;;20.50;59.20;;;;;;5157465;27;20035;-67
2023/09/28 02:45:52;;;;;;;0.40;0.40;;;20.50;59.30;;;;;;5156767;27;20023;-67
2023/09/28 02:48:18;;;;;;;0.70;0.70;;;20.50;59.40;;;;;;5161551;27;20079;-67
2023/09/28 02:50:44;;;;;;;0.50;0.50;;;20.50;59.40;;;;;;5177780;27;20124;-67
2023/09/28 02:53:10;;;;;;;0.52;0.52;;;20.50;59.30;;;;;;5177841;27;20275;-67
2023/09/28 02:55:36;;;;;;;0.40;0.40;;;20.50;59.30;;;;;;5178043;27;20018;-67
2023/09/28 02:58:03;;;;;;;0.50;0.50;;;20.50;59.30;;;;;;5177666;27;20102;-67
2023/09/28 03:00:32;;;;;;;0.30;0.30;;;20.50;59.30;;;;;;5177559;27;20027;-67
2023/09/28 03:03:00;;;;;;;0.60;0.60;;;20.50;59.30;;;;;;5177750;27;20034;-67
2023/09/28 03:05:27;;;;;;;0.30;0.30;;;20.50;59.40;;;;;;5178218;27;20022;-68
2023/09/28 03:07:52;;;;;;;0.40;0.40;;;20.50;59.50;;;;;;5177422;27;20026;-67
2023/09/28 03:10:19;;;;;;;0.60;0.60;;;20.50;59.60;;;;;;5177484;27;20022;-67
2023/09/28 03:12:46;;;;;;;0.50;0.50;;;20.40;59.50;;;;;;5176591;27;20051;-68
2023/09/28 03:15:16;;;;;;;0.45;0.45;;;20.40;59.50;;;;;;5176920;27;20444;-67
2023/09/28 03:17:41;;;;;;;0.40;0.40;;;20.40;59.40;;;;;;5177595;27;20026;-67
2023/09/28 03:20:17;;;;;;;0.82;0.82;;;20.40;59.40;;;;;;5178375;27;20034;-67
2023/09/28 03:22:46;;;;;;;0.60;0.60;;;20.40;59.40;;;;;;5177458;27;20041;-67
2023/09/28 03:25:21;;;;;;;0.60;0.60;;;20.40;59.60;;;;;;5177281;27;20022;-68
2023/09/28 03:27:51;;;;;;;0.47;0.47;;;20.40;59.60;;;;;;5176722;27;20423;-66
2023/09/28 03:30:18;;;;;;;0.50;0.50;;;20.40;59.60;;;;;;5175234;27;20022;-66
2023/09/28 03:32:47;;;;;;;0.45;0.45;;;20.40;59.60;;;;;;5175298;27;20030;-66
2023/09/28 03:35:12;;;;;;;0.30;0.30;;;20.50;59.60;;;;;;5175276;27;20497;-66
2023/09/28 03:37:40;;;;;;;1.17;0.75;;;20.40;59.60;;;;;;5163376;27;20030;-66
2023/09/28 03:40:12;;;;;;;0.40;0.40;;;20.50;59.60;;;;;;5154170;27;20357;-66
2023/09/28 03:42:50;;;;;;;0.90;0.60;;;20.50;59.60;;;;;;5154227;27;20496;-66
2023/09/28 03:45:21;;;;;;;0.40;0.40;;;20.50;59.80;;;;;;5154173;27;20034;-66
2023/09/28 03:47:52;;;;;;;0.40;0.40;;;20.50;59.70;;;;;;5153814;27;20031;-67
2023/09/28 03:50:22;;;;;;;0.40;0.40;;;20.60;59.90;;;;;;5154153;27;20491;-66
2023/09/28 03:52:48;;;;;;;0.50;0.50;;;20.70;59.90;;;;;;5159160;27;20049;-66
2023/09/28 03:55:18;;;;;;;0.68;0.68;;;20.80;59.90;;;;;;5175130;27;20101;-66
2023/09/28 03:57:47;;;;;;;0.50;0.50;;;21.00;59.70;;;;;;5174902;27;20027;-66
2023/09/28 04:00:14;;;;;;;0.68;0.68;;;21.10;59.50;;;;;;5174803;27;20054;-66
2023/09/28 04:02:50;;;;;;;0.60;0.60;;;21.30;59.20;;;;;;5174644;27;20045;-66
2023/09/28 04:05:16;;;;;;;0.60;0.60;;;21.30;58.90;;;;;;5174993;27;20030;-66
2023/09/28 04:07:41;;;;;;;0.32;0.32;;;21.40;58.60;;;;;;5174072;27;20026;-66
2023/09/28 04:10:08;;;;;;;0.68;0.68;;;21.50;58.10;;;;;;5174268;27;20026;-66
2023/09/28 04:12:34;;;;;;;0.40;0.40;;;21.70;57.70;;;;;;5174271;27;20097;-66
2023/09/28 04:15:00;;;;;;;0.38;0.38;;;21.70;57.60;;;;;;5174249;27;20081;-66
2023/09/28 04:17:25;;;;;;;0.73;0.73;;;21.80;57.30;;;;;;5174473;27;20171;-66
2023/09/28 04:19:52;;;;;;;0.50;0.50;;;21.80;57.10;;;;;;5174417;27;20070;-67
2023/09/28 04:22:18;;;;;;;0.50;0.50;;;21.80;56.70;;;;;;5174156;27;20498;-66
2023/09/28 04:24:43;;;;;;;0.50;0.50;;;21.80;56.60;;;;;;5174356;27;20048;-66
2023/09/28 04:27:09;;;;;;;0.45;0.45;;;21.80;56.40;;;;;;5174198;27;20045;-66
2023/09/28 04:29:35;;;;;;;0.50;0.50;;;21.80;56.30;;;;;;5172772;27;20022;-66
2023/09/28 04:32:01;;;;;;;0.65;0.65;;;21.90;56.00;;;;;;5173493;27;20474;-67
2023/09/28 04:34:27;;;;;;;0.63;0.63;;;21.90;55.80;;;;;;5173831;27;20034;-66
2023/09/28 04:36:52;;;;;;;0.63;0.63;;;22.00;55.70;;;;;;5172483;27;20046;-66
2023/09/28 04:39:18;;;;;;;0.40;0.40;;;22.00;55.40;;;;;;5175802;27;20114;-67
2023/09/28 04:41:44;;;;;;;0.40;0.40;;;22.00;55.40;;;;;;5174932;27;20195;-67
2023/09/28 04:44:10;;;;;;;0.60;0.60;;;21.90;55.20;;;;;;5175035;27;20383;-67
2023/09/28 04:46:36;;;;;;;0.57;0.57;;;21.90;55.20;;;;;;5174974;27;20026;-68
2023/09/28 04:49:02;;;;;;;0.60;0.60;;;21.70;55.10;;;;;;5174378;27;20026;-67
2023/09/28 04:51:28;;;;;;;0.60;0.60;;;21.60;55.60;;;;;;5174925;27;20047;-67
2023/09/28 04:53:54;;;;;;;0.70;0.70;;;21.40;55.70;;;;;;5175884;27;20374;-67
2023/09/28 04:56:20;;;;;;;0.52;0.52;;;21.30;56.00;;;;;;5175478;27;20030;-68
2023/09/28 04:58:46;;;;;;;0.70;0.70;;;21.30;56.20;;;;;;5174730;27;20445;-67
2023/09/28 05:01:12;;;;;;;0.47;0.47;;;21.20;56.30;;;;;;5174507;27;20054;-67
2023/09/28 05:03:37;;;;;;;0.60;0.60;;;21.20;56.20;;;;;;5175320;27;20034;-68
2023/09/28 05:06:04;;;;;;;0.40;0.40;;;21.20;56.20;;;;;;5174857;27;20020;-69
2023/09/28 05:08:30;;;;;;;0.40;0.40;;;21.20;56.10;;;;;;5175719;27;20049;-69
2023/09/28 05:10:56;;;;;;;0.50;0.50;;;21.30;56.00;;;;;;5174890;27;20023;-68
2023/09/28 05:13:23;;;;;;;0.47;0.47;;;21.20;56.00;;;;;;5175667;27;20042;-68
2023/09/28 05:15:49;;;;;;;0.40;0.40;;;21.20;56.00;;;;;;5175627;27;20490;-68
2023/09/28 05:18:14;;;;;;;0.60;0.60;;;21.10;56.10;;;;;;5175407;27;20031;-69
2023/09/28 05:20:40;;;;;;;0.50;0.50;;;21.20;56.10;;;;;;5175786;27;20026;-69
2023/09/28 05:23:06;;;;;;;0.80;0.70;;;21.20;56.30;;;;;;5176417;27;20030;-69
2023/09/28 05:25:35;;;;;;;0.30;0.30;;;21.30;56.20;;;;;;5176936;27;20030;-69
2023/09/28 05:28:01;;;;;;;0.85;0.85;;;21.30;56.20;;;;;;5177007;27;20114;-69
2023/09/28 05:30:27;;;;;;;0.73;0.70;;;21.40;56.10;;;;;;5177544;27;20026;-69
2023/09/28 05:32:52;;;;;;;0.50;0.50;;;21.50;56.10;;;;;;5173823;27;20574;-69
2023/09/28 05:35:18;;;;;;;0.40;0.40;;;21.50;55.90;;;;;;5180115;27;20170;-69
2023/09/28 05:37:44;;;;;;;0.65;0.65;;;21.50;55.80;;;;;;5166391;27;20023;-69
2023/09/28 05:40:10;;;;;;;0.40;0.40;;;21.50;55.60;;;;;;5161369;27;20025;-69
2023/09/28 05:42:36;;;;;;;0.40;0.40;;;21.50;55.60;;;;;;5169004;27;20113;-69
2023/09/28 05:45:02;;;;;;;0.70;0.70;;;21.50;55.60;;;;;;5163701;27;20018;-69
2023/09/28 05:47:28;;;;;;;0.50;0.50;;;21.50;55.60;;;;;;5159834;27;20031;-69
2023/09/28 05:49:54;;;;;;;0.52;0.52;;;21.50;55.60;;;;;;5159808;27;20031;-69
2023/09/28 05:52:20;;;;;;;0.40;0.40;;;21.50;55.70;;;;;;5161800;27;20033;-69
2023/09/28 05:54:46;;;;;;;0.50;0.50;;;21.50;55.70;;;;;;5181256;27;20030;-69
2023/09/28 05:57:13;;;;;;;0.60;0.60;;;21.50;55.80;;;;;;5180423;27;20382;-67
2023/09/28 05:59:38;;;;;;;2.20;1.50;;;21.60;55.80;;;;;;5170832;27;20027;-68
2023/09/28 06:02:04;;;;;;;0.60;0.60;;;21.70;55.80;;;;;;5162732;27;20485;-69
2023/09/28 06:04:30;;;;;;;0.50;0.50;;;21.80;55.60;;;;;;5179465;27;20415;-68
2023/09/28 06:06:56;;;;;;;0.65;0.65;;;21.80;55.50;;;;;;5172445;27;20018;-68
2023/09/28 06:09:22;;;;;;;0.73;0.73;;;21.80;55.40;;;;;;5160449;27;20022;-68
2023/09/28 06:11:48;;;;;;;0.52;0.52;;;21.90;55.30;;;;;;5172505;27;20515;-69
2023/09/28 06:14:15;;;;;;;1.30;0.85;;;21.90;55.30;;;;;;5179669;27;20029;-68
2023/09/28 06:16:42;;;;;;;0.50;0.50;;;22.00;55.20;;;;;;5177407;27;20018;-68
2023/09/28 06:19:08;;;;;;;0.40;0.40;;;21.90;55.20;;;;;;5180762;27;20034;-68
2023/09/28 06:21:34;;;;;;;0.50;0.50;;;22.00;55.20;;;;;;5171315;27;20030;-69
2023/09/28 06:23:59;;;;;;;1.05;0.50;;;22.10;55.10;;;;;;5173041;27;20041;-69
2023/09/28 06:26:25;;;;;;;0.50;0.50;;;22.10;55.10;;;;;;5179867;27;20014;-69
2023/09/28 06:28:51;;;;;;;0.85;0.70;;;22.20;55.10;;;;;;5180144;27;20019;-69
2023/09/28 06:31:18;;;;;;;0.80;0.80;;;22.20;55.10;;;;;;5179220;27;20133;-70
2023/09/28 06:33:45;;;;;;;0.43;0.43;;;22.30;55.10;;;;;;5157446;27;20427;-69
2023/09/28 06:36:10;;;;;;;0.45;0.45;;;22.30;55.00;;;;;;5175054;27;20057;-69
2023/09/28 06:38:36;;;;;;;0.70;0.70;;;22.50;55.40;;;;;;5175327;27;20031;-69
2023/09/28 06:41:02;;;;;;;0.65;0.65;;;22.80;56.30;;;;;;5179492;27;20043;-69
2023/09/28 06:43:28;;;;;;;0.50;0.50;;;23.30;56.50;;;;;;5174614;27;20030;-70
2023/09/28 06:45:56;;;;;;;0.63;0.63;;;23.80;56.80;;;;;;5179054;27;20501;-70
2023/09/28 06:48:22;;;;;;;0.65;0.65;;;24.30;56.80;;;;;;5180368;27;20030;-69
2023/09/28 06:50:49;;;;;;;0.40;0.40;;;24.90;56.60;;;;;;5180672;27;20018;-70
2023/09/28 06:53:16;;;;;;;0.40;0.40;;;25.50;56.00;;;;;;5171671;27;20025;-70
2023/09/28 06:55:43;;;;;;;0.55;0.55;;;26.20;54.90;;;;;;5181049;27;20073;-70
2023/09/28 06:58:09;;;;;;;0.52;0.50;;;26.70;54.10;;;;;;5160022;27;20038;-67
2023/09/28 07:00:35;;;;;;;0.52;0.52;;;27.30;53.40;;;;;;5158098;27;20367;-68
2023/09/28 07:03:00;;;;;;;0.50;0.50;;;27.80;52.50;;;;;;5171240;27;20026;-66
2023/09/28 07:05:26;;;;;;;1.83;0.90;;;28.30;51.40;;;;;;5175825;27;20026;-67
2023/09/28 07:07:52;;;;;;;0.70;0.70;;;28.70;50.20;;;;;;5175096;27;20091;-68
2023/09/28 07:10:18;;;;;;;0.50;0.50;;;29.20;49.00;;;;;;5176241;27;20018;-68
2023/09/28 07:12:43;;;;;;;0.63;0.63;;;29.50;48.10;;;;;;5167790;27;20033;-68
2023/09/28 07:15:09;;;;;;;0.63;0.60;;;29.90;47.40;;;;;;5175534;27;20041;-68
2023/09/28 07:17:36;;;;;;;1.58;0.60;;;30.30;46.70;;;;;;5175633;27;20025;-68
2023/09/28 07:20:02;;;;;;;0.50;0.50;;;30.70;45.60;;;;;;5174423;27;20383;-69
2023/09/28 07:22:28;;;;;;;0.85;0.70;;;31.10;45.30;;;;;;5174110;27;20451;-67
2023/09/28 07:24:56;;;;;;;0.70;0.70;;;31.50;44.10;;;;;;5175088;27;20101;-67
2023/09/28 07:27:21;;;;;;;0.45;0.45;;;32.00;43.50;;;;;;5175808;27;20489;-67
2023/09/28 07:29:48;;;;;;;0.47;0.47;;;32.30;42.30;;;;;;5174878;27;20026;-67
2023/09/28 07:32:14;;;;;;;0.60;0.60;;;32.70;40.60;;;;;;5174412;27;20121;-67
2023/09/28 07:34:41;;;;;;;0.60;0.60;;;32.90;38.70;;;;;;5175432;27;20490;-67
2023/09/28 07:37:07;;;;;;;0.60;0.60;;;33.20;38.00;;;;;;5174577;27;20426;-67
2023/09/28 07:39:32;;;;;;;0.43;0.43;;;33.40;37.30;;;;;;5175406;27;20026;-68
2023/09/28 07:41:59;;;;;;;0.50;0.50;;;33.60;36.40;;;;;;5174314;27;20019;-69
2023/09/28 07:44:24;;;;;;;0.50;0.50;;;33.80;35.40;;;;;;5174600;27;20079;-68
2023/09/28 07:46:50;;;;;;;0.60;0.60;;;33.90;35.40;;;;;;5173997;27;20483;-68
2023/09/28 07:49:15;;;;;;;0.57;0.57;;;34.20;35.50;;;;;;5173928;27;20026;-68
2023/09/28 07:51:41;;;;;;;0.60;0.60;;;34.40;35.30;;;;;;5172713;27;20435;-68
2023/09/28 07:54:06;;;;;;;0.80;0.65;;;34.70;34.90;;;;;;5175167;27;20384;-67
2023/09/28 07:56:33;;;;;;;0.60;0.60;;;34.90;34.10;;;;;;5172039;27;20018;-68
2023/09/28 07:58:59;;;;;;;0.90;0.90;;;35.00;33.30;;;;;;5173379;27;20034;-69
2023/09/28 08:01:26;;;;;;;0.50;0.50;;;35.20;32.90;;;;;;5173480;27;20018;-68
2023/09/28 08:03:52;;;;;;;0.60;0.60;;;35.30;32.70;;;;;;5174944;27;20622;-69
2023/09/28 08:06:17;;;;;;;0.85;0.85;;;35.40;31.90;;;;;;5173413;27;20050;-68
2023/09/28 08:08:43;;;;;;;0.85;0.75;;;35.40;31.50;;;;;;5176974;27;20049;-70
2023/09/28 08:11:09;;;;;;;0.60;0.60;;;35.60;32.20;;;;;;5178925;27;20030;-70
2023/09/28 08:13:34;;;;;;;1.67;1.35;;;35.70;32.20;;;;;;5177923;27;20034;-70
2023/09/28 08:16:01;;;;;;;0.77;0.77;;;35.90;31.80;;;;;;5177974;27;20069;-68
2023/09/28 08:18:26;;;;;;;1.40;1.20;;;36.00;31.50;;;;;;5174280;27;20565;-68
2023/09/28 08:20:52;;;;;;;0.80;0.80;;;36.20;31.10;;;;;;5174497;27;20097;-70
2023/09/28 08:23:18;;;;;;;0.77;0.77;;;36.30;31.60;;;;;;5172583;27;20042;-68
2023/09/28 08:25:44;;;;;;;0.70;0.70;;;36.50;31.00;;;;;;5173751;27;20515;-68
2023/09/28 08:28:09;;;;;;;0.70;0.70;;;36.70;30.00;;;;;;5174549;27;20034;-68
2023/09/28 08:30:35;;;;;;;0.90;0.90;;;36.50;30.20;;;;;;5174110;27;20018;-68
2023/09/28 08:33:00;;;;;;;0.77;0.77;;;36.60;30.60;;;;;;5152672;27;20031;-68
2023/09/28 08:35:26;;;;;;;0.77;0.77;;;36.70;30.80;;;;;;5154498;27;20037;-67
2023/09/28 08:37:52;;;;;;;0.60;0.60;;;37.00;31.00;;;;;;5173630;27;20066;-69
2023/09/28 08:40:18;;;;;;;0.70;0.70;;;37.30;30.80;;;;;;5174138;27;20110;-68
2023/09/28 08:42:44;;;;;;;0.70;0.70;;;37.40;30.20;;;;;;5174038;27;20501;-68
2023/09/28 08:45:13;;;;;;;1.40;1.13;;;37.50;29.60;;;;;;5173200;27;20030;-68
2023/09/28 08:47:51;;;;;;;0.85;0.85;;;37.50;29.70;;;;;;5174663;27;20039;-68
2023/09/28 08:50:25;;;;;;;1.13;0.90;;;37.70;29.80;;;;;;5173839;27;20018;-68
2023/09/28 08:52:53;;;;;;;0.80;0.80;;;37.90;29.60;;;;;;5172839;27;20033;-68
2023/09/28 08:55:21;;;;;;;0.75;0.75;;;38.00;30.00;;;;;;5173736;27;20019;-67
2023/09/28 08:57:46;;;;;;;1.27;0.85;;;38.20;29.60;;;;;;5173694;27;20026;-69
2023/09/28 09:00:14;;;;;;;0.60;0.60;;;38.20;29.00;;;;;;5173774;27;20036;-67
2023/09/28 09:02:43;;;;;;;0.60;0.60;;;38.20;29.40;;;;;;5173352;27;20117;-68
2023/09/28 09:05:12;;;;;;;0.73;0.73;;;38.30;29.60;;;;;;5172387;27;20471;-68
2023/09/28 09:07:40;;;;;;;0.60;0.60;;;38.40;29.70;;;;;;5172542;27;20457;-68
2023/09/28 09:10:08;;;;;;;0.60;0.60;;;38.60;29.20;;;;;;5172901;27;20382;-68
2023/09/28 09:12:35;;;;;;;0.70;0.70;;;38.70;29.10;;;;;;5172855;27;20053;-68
2023/09/28 09:15:01;;;;;;;5.38;0.88;;;38.80;29.40;;;;;;5173576;27;20022;-68
2023/09/28 09:17:33;;;;;;;0.65;0.65;;;38.90;28.80;;;;;;5165845;27;20095;-70
2023/09/28 09:19:59;;;;;;;0.95;0.95;;;39.00;29.10;;;;;;5155753;27;20042;-70
2023/09/28 09:22:26;;;;;;;0.90;0.90;;;39.20;29.00;;;;;;5164923;27;20033;-70
2023/09/28 09:24:56;;;;;;;4.63;1.55;;;39.10;28.20;;;;;;5177772;27;20385;-70
2023/09/28 09:27:29;;;;;;;3.38;1.02;;;38.80;28.50;;;;;;5171542;27;20026;-70
2023/09/28 09:30:02;;;;;;;0.60;0.60;;;38.60;28.40;;;;;;5177970;27;20109;-70
2023/09/28 09:32:28;;;;;;;0.55;0.55;;;38.40;28.70;;;;;;5176980;27;20040;-70
2023/09/28 09:34:54;;;;;;;0.70;0.70;;;38.30;28.90;;;;;;5169937;27;20078;-70
2023/09/28 09:37:20;;;;;;;0.70;0.70;;;38.30;29.20;;;;;;5156257;27;20035;-70
2023/09/28 09:39:45;;;;;;;0.70;0.70;;;38.30;29.50;;;;;;5157004;27;20037;-70
2023/09/28 09:42:11;;;;;;;0.80;0.80;;;38.30;29.20;;;;;;5155559;27;20483;-70
2023/09/28 09:44:37;;;;;;;0.60;0.60;;;38.30;29.30;;;;;;5157215;27;20526;-70
2023/09/28 09:47:03;;;;;;;0.60;0.60;;;38.40;29.40;;;;;;5163013;27;20030;-70
2023/09/28 09:49:29;;;;;;;0.50;0.50;;;38.30;29.20;;;;;;5178152;27;20086;-70
2023/09/28 09:51:59;;;;;;;0.55;0.55;;;38.20;29.20;;;;;;5179054;27;20015;-70
2023/09/28 09:54:24;;;;;;;0.60;0.60;;;38.10;29.20;;;;;;5180377;27;20371;-70
2023/09/28 09:56:51;;;;;;;0.60;0.60;;;38.00;29.40;;;;;;5177691;27;20063;-71
2023/09/28 09:59:22;;;;;;;0.70;0.70;;;37.90;29.50;;;;;;5160619;27;20073;-71
2023/09/28 10:01:52;;;;;;;1.73;0.73;;;37.90;29.90;;;;;;5160607;27;20042;-70
2023/09/28 10:04:19;;;;;;;0.68;0.68;;;38.00;29.80;;;;;;5177755;27;20026;-70
2023/09/28 10:06:51;;;;;;;0.80;0.80;;;38.10;29.90;;;;;;5178660;27;20114;-72
2023/09/28 10:09:19;;;;;;;0.60;0.60;;;38.30;29.70;;;;;;5176535;27;20116;-71
2023/09/28 10:11:49;;;;;;;4.10;1.02;;;38.50;29.70;;;;;;5179324;27;20018;-70
2023/09/28 10:14:18;;;;;;;0.60;0.60;;;38.80;29.70;;;;;;5178998;27;20026;-70
2023/09/28 10:16:46;;;;;;;0.80;0.80;;;39.00;29.20;;;;;;5179922;27;20060;-71
2023/09/28 10:19:15;;;;;;;1.17;0.98;;;39.10;28.50;;;;;;5161033;27;20360;-71
2023/09/28 10:21:41;;;;;;;0.60;0.60;;;38.90;28.30;;;;;;5170586;27;20482;-71
2023/09/28 10:24:14;;;;;;;0.60;0.60;;;38.80;28.70;;;;;;5183150;27;20042;-71
2023/09/28 10:26:51;;;;;;;0.88;0.80;;;38.70;28.80;;;;;;5166155;27;20570;-69
2023/09/28 10:29:28;;;;;;;0.75;0.75;;;38.70;28.80;;;;;;5175093;27;20505;-70
2023/09/28 10:31:55;;;;;;;0.70;0.70;;;38.50;28.70;;;;;;5184931;27;20082;-70
2023/09/28 10:34:22;;;;;;;0.70;0.70;;;38.50;29.20;;;;;;5184347;27;20033;-70
2023/09/28 10:37:15;;;;;;;1.08;1.02;;;38.70;29.00;;;;;;5179956;27;20030;-70
2023/09/28 10:39:53;;;;;;;0.60;0.60;;;39.00;29.00;;;;;;5167807;27;20022;-71
2023/09/28 10:42:21;;;;;;;0.75;0.75;;;39.20;28.70;;;;;;5182469;27;20041;-69
2023/09/28 10:44:52;;;;;;;0.60;0.60;;;39.10;28.20;;;;;;5185154;27;20029;-71
2023/09/28 10:47:19;;;;;;;1.20;1.10;;;39.00;28.30;;;;;;5183370;27;20098;-70
2023/09/28 10:49:45;;;;;;;0.65;0.65;;;38.70;28.10;;;;;;5181274;27;20098;-70
2023/09/28 10:52:11;;;;;;;0.50;0.50;;;38.40;28.20;;;;;;5181104;27;20023;-70
2023/09/28 10:54:39;;;;;;;0.57;0.57;;;38.10;28.60;;;;;;5180312;27;20032;-70
2023/09/28 10:57:04;;;;;;;0.60;0.60;;;37.90;28.80;;;;;;5181734;27;20029;-69
2023/09/28 10:59:30;;;;;;;3.40;1.00;;;37.70;28.50;;;;;;5180858;27;20026;-69
2023/09/28 11:01:56;;;;;;;1.50;1.20;;;37.20;28.80;;;;;;5177961;27;20030;-70
2023/09/28 11:04:22;;;;;;;0.60;0.60;;;36.80;29.50;;;;;;5179520;27;20026;-70
2023/09/28 11:06:49;;;;;;;0.70;0.70;;;36.50;29.90;;;;;;5179246;27;20379;-70
2023/09/28 11:09:19;;;;;;;0.80;0.80;;;36.30;30.40;;;;;;5179108;27;20025;-70
2023/09/28 11:11:45;;;;;;;0.52;0.52;;;36.20;30.90;;;;;;5178176;27;20493;-70
2023/09/28 11:14:10;;;;;;;1.95;1.23;;;36.20;31.00;;;;;;5180046;27;20467;-70
2023/09/28 11:16:40;;;;;;;0.60;0.60;;;36.30;31.20;;;;;;5180058;27;20032;-70
2023/09/28 11:19:07;;;;;;;0.55;0.55;;;36.30;31.10;;;;;;5179108;27;20425;-70
2023/09/28 11:21:33;;;;;;;0.60;0.60;;;36.20;31.10;;;;;;5173875;27;20038;-69
2023/09/28 11:24:00;;;;;;;0.80;0.70;;;36.20;31.20;;;;;;5180622;27;20509;-69
2023/09/28 11:26:28;;;;;;;0.65;0.65;;;36.30;31.40;;;;;;5180450;27;20026;-69
2023/09/28 11:28:56;;;;;;;0.85;0.85;;;36.30;31.40;;;;;;5180236;27;20026;-69
2023/09/28 11:31:21;;;;;;;0.60;0.60;;;36.30;31.30;;;;;;5179674;27;20176;-69
2023/09/28 11:33:47;;;;;;;1.27;0.95;;;36.30;31.40;;;;;;5176932;27;20057;-69
2023/09/28 11:36:22;;;;;;;0.50;0.50;;;36.40;31.40;;;;;;5178065;27;20033;-69
2023/09/28 11:38:49;;;;;;;0.63;0.63;;;36.70;31.20;;;;;;5155442;27;20034;-69
2023/09/28 11:41:15;;;;;;;0.60;0.60;;;36.80;30.90;;;;;;5174936;27;20033;-68
2023/09/28 11:43:56;;;;;;;0.50;0.50;;;36.80;30.90;;;;;;5177495;27;20026;-69
2023/09/28 11:46:32;;;;;;;0.57;0.57;;;36.80;30.80;;;;;;5170665;27;20018;-69
2023/09/28 11:49:04;;;;;;;0.60;0.60;;;36.80;31.00;;;;;;5176628;27;20018;-69
2023/09/28 11:51:31;;;;;;;0.70;0.70;;;36.80;30.60;;;;;;5171516;27;20355;-69
2023/09/28 11:53:57;;;;;;;0.80;0.68;;;36.70;30.20;;;;;;5173215;27;20609;-68
2023/09/28 11:56:23;;;;;;;0.50;0.50;;;36.40;30.20;;;;;;5171790;27;20023;-68
2023/09/28 11:58:49;;;;;;;0.80;0.80;;;36.10;30.60;;;;;;5176937;27;20484;-69
2023/09/28 12:01:15;;;;;;;0.60;0.60;;;35.90;31.00;;;;;;5177166;27;20053;-69
2023/09/28 12:03:40;;;;;;;0.55;0.55;;;35.80;31.20;;;;;;5173432;27;20036;-69
2023/09/28 12:06:06;;;;;;;1.30;0.98;;;35.70;31.00;;;;;;5176933;27;20017;-68
2023/09/28 12:08:32;;;;;;;0.68;0.63;;;35.50;31.20;;;;;;5174838;27;20030;-68
2023/09/28 12:10:57;;;;;;;0.73;0.73;;;35.30;31.40;;;;;;5163080;27;20464;-68
2023/09/28 12:13:24;;;;;;;0.50;0.50;;;35.20;31.20;;;;;;5165451;27;20027;-68
2023/09/28 12:15:50;;;;;;;0.75;0.75;;;35.00;31.20;;;;;;5162988;27;20034;-68
2023/09/28 12:18:16;;;;;;;0.63;0.63;;;34.70;31.50;;;;;;5165250;27;20022;-68
2023/09/28 12:20:41;;;;;;;0.57;0.57;;;34.40;31.60;;;;;;5169885;27;20014;-68
2023/09/28 12:23:07;;;;;;;0.60;0.60;;;34.30;32.30;;;;;;5170506;27;20042;-68
2023/09/28 12:25:34;;;;;;;0.70;0.70;;;34.30;32.60;;;;;;5165743;27;20387;-68
2023/09/28 12:28:00;;;;;;;0.57;0.57;;;34.30;32.70;;;;;;5172827;27;20159;-68
2023/09/28 12:30:26;;;;;;;0.93;0.93;;;34.40;32.80;;;;;;5166821;27;20050;-68
2023/09/28 12:32:53;;;;;;;0.50;0.50;;;34.40;32.60;;;;;;5168979;27;20422;-68
2023/09/28 12:35:21;;;;;;;0.65;0.65;;;34.40;32.00;;;;;;5171796;27;20030;-68
2023/09/28 12:37:49;;;;;;;0.73;0.70;;;34.20;32.40;;;;;;5161385;27;20525;-69
2023/09/28 12:40:15;;;;;;;0.95;0.75;;;34.10;32.60;;;;;;5159675;27;20019;-69
2023/09/28 12:42:41;;;;;;;0.73;0.70;;;34.00;32.40;;;;;;5169993;27;20046;-68
2023/09/28 12:45:07;;;;;;;0.50;0.50;;;33.80;32.50;;;;;;5172137;27;20026;-68
2023/09/28 12:47:33;;;;;;;0.63;0.63;;;33.60;32.70;;;;;;5174295;27;20041;-67